PWSweather.com
Personal Weather Stations
Station Observations

Tucson, AZ 85750

Lat: 32.31347, Lon: -110.825248

Elevation: 2745

Station Type: Davis Vantage Pro

http://www.cfsd16.org/schools/espererocanyon/weather_tracker.html

Latest ConditionsUpdated 2:20:16 AM MST Saturday, Apr 19, 2014
Currently Today's Max Today's Min Today's Average
Temperature 60.2°F15.7°C 62.9°F17.2°C 60.2°F15.7°C 61.0°F16.1°C
Dew Point 49.6°F9.8°C 50.9°F10.5°C 42.9°F6.1°C 46.2°F7.9°C
Winds Calm Calm Calm ESECalm ESE - Calm Calm
Wind Gusts -- -- - -
Humidity 68% 70% 48% 59%
Pressure 29.77 in1008.1 mb 29.81 in1009.5 mb 29.77 in1008.1 mb -
Hour Temp Dew Point Humidity Winds Wind Gusts Pressure Precip Precip Rate Daily Precip Total
02:20 AM 60.2°F15.7°C 49.6°F9.8°C 68% Calm Calm -- 29.77 in1008.1 mb 0.00 in0.0 mm 0.00 in/hr0.0 mm/hr 0.00 in0.0 mm
02:15 AM 60.3°F15.7°C 49.7°F9.8°C 68% Calm Calm -- 29.77 in1008.1 mb 0.00 in0.0 mm 0.00 in/hr0.0 mm/hr 0.00 in0.0 mm
02:10 AM 60.4°F15.8°C 49.8°F9.9°C 68% Calm Calm -- 29.77 in1008.1 mb 0.00 in0.0 mm 0.00 in/hr0.0 mm/hr 0.00 in0.0 mm
02:05 AM 60.5°F15.8°C 50.3°F10.2°C 69% Calm Calm -- 29.78 in1008.5 mb 0.00 in0.0 mm 0.00 in/hr0.0 mm/hr 0.00 in0.0 mm
02:00 AM 60.6°F15.9°C 50.8°F10.4°C 70% Calm Calm -- 29.78 in1008.5 mb 0.00 in0.0 mm 0.00 in/hr0.0 mm/hr 0.00 in0.0 mm
01:55 AM 60.7°F15.9°C 50.9°F10.5°C 70% Calm Calm -- 29.78 in1008.5 mb 0.00 in0.0 mm 0.00 in/hr0.0 mm/hr 0.00 in0.0 mm
01:50 AM 60.7°F15.9°C 49.3°F9.6°C 66% Calm Calm -- 29.78 in1008.5 mb 0.00 in0.0 mm 0.00 in/hr0.0 mm/hr 0.00 in0.0 mm
01:45 AM 60.7°F15.9°C 49.7°F9.8°C 67% Calm Calm -- 29.79 in1008.8 mb 0.00 in0.0 mm 0.00 in/hr0.0 mm/hr 0.00 in0.0 mm
01:40 AM 60.7°F15.9°C 48.4°F9.1°C 64% Calm Calm -- 29.79 in1008.8 mb 0.00 in0.0 mm 0.00 in/hr0.0 mm/hr 0.00 in0.0 mm
01:35 AM 60.7°F15.9°C 48.4°F9.1°C 64% Calm Calm -- 29.79 in1008.8 mb 0.00 in0.0 mm 0.00 in/hr0.0 mm/hr 0.00 in0.0 mm
01:30 AM 60.7°F15.9°C 48.9°F9.4°C 65% Calm Calm -- 29.79 in1008.8 mb 0.00 in0.0 mm 0.00 in/hr0.0 mm/hr 0.00 in0.0 mm
01:25 AM 60.6°F15.9°C 46.6°F8.1°C 60% Calm Calm -- 29.79 in1008.8 mb 0.00 in0.0 mm 0.00 in/hr0.0 mm/hr 0.00 in0.0 mm
01:20 AM 60.5°F15.8°C 45.2°F7.3°C 57% Calm Calm -- 29.80 in1009.1 mb 0.00 in0.0 mm 0.00 in/hr0.0 mm/hr 0.00 in0.0 mm
01:15 AM 60.5°F15.8°C 45.2°F7.3°C 57% Calm Calm -- 29.80 in1009.1 mb 0.00 in0.0 mm 0.00 in/hr0.0 mm/hr 0.00 in0.0 mm
01:10 AM 60.4°F15.8°C 44.6°F7.0°C 56% Calm Calm -- 29.80 in1009.1 mb 0.00 in0.0 mm 0.00 in/hr0.0 mm/hr 0.00 in0.0 mm
01:05 AM 60.4°F15.8°C 44.2°F6.8°C 55% Calm Calm -- 29.80 in1009.1 mb 0.00 in0.0 mm 0.00 in/hr0.0 mm/hr 0.00 in0.0 mm
01:00 AM 60.4°F15.8°C 44.2°F6.8°C 55% Calm Calm -- 29.80 in1009.1 mb 0.00 in0.0 mm 0.00 in/hr0.0 mm/hr 0.00 in0.0 mm
12:55 AM 60.5°F15.8°C 43.8°F6.6°C 54% Calm Calm -- 29.80 in1009.1 mb 0.00 in0.0 mm 0.00 in/hr0.0 mm/hr 0.00 in0.0 mm
12:50 AM 60.5°F15.8°C 43.8°F6.6°C 54% Calm Calm -- 29.80 in1009.1 mb 0.00 in0.0 mm 0.00 in/hr0.0 mm/hr 0.00 in0.0 mm
12:45 AM 60.7°F15.9°C 44.0°F6.7°C 54% Calm Calm -- 29.81 in1009.5 mb 0.00 in0.0 mm 0.00 in/hr0.0 mm/hr 0.00 in0.0 mm
12:40 AM 60.9°F16.1°C 43.7°F6.5°C 53% Calm Calm -- 29.80 in1009.1 mb 0.00 in0.0 mm 0.00 in/hr0.0 mm/hr 0.00 in0.0 mm
12:35 AM 61.2°F16.2°C 43.4°F6.3°C 52% Calm Calm -- 29.80 in1009.1 mb 0.00 in0.0 mm 0.00 in/hr0.0 mm/hr 0.00 in0.0 mm
12:30 AM 61.4°F16.3°C 43.6°F6.4°C 52% Calm Calm -- 29.80 in1009.1 mb 0.00 in0.0 mm 0.00 in/hr0.0 mm/hr 0.00 in0.0 mm
12:25 AM 61.5°F16.4°C 43.7°F6.5°C 52% Calm Calm -- 29.80 in1009.1 mb 0.00 in0.0 mm 0.00 in/hr0.0 mm/hr 0.00 in0.0 mm
12:20 AM 61.8°F16.6°C 44.0°F6.7°C 52% Calm Calm -- 29.80 in1009.1 mb 0.00 in0.0 mm 0.00 in/hr0.0 mm/hr 0.00 in0.0 mm
12:15 AM 62.0°F16.7°C 43.7°F6.5°C 51% Calm Calm -- 29.79 in1008.8 mb 0.00 in0.0 mm 0.00 in/hr0.0 mm/hr 0.00 in0.0 mm
12:10 AM 62.6°F17.0°C 43.2°F6.2°C 49% Calm Calm -- 29.79 in1008.8 mb 0.00 in0.0 mm 0.00 in/hr0.0 mm/hr 0.00 in0.0 mm
12:05 AM 62.7°F17.1°C 43.3°F6.3°C 49% Calm Calm -- 29.79 in1008.8 mb 0.00 in0.0 mm 0.00 in/hr0.0 mm/hr 0.00 in0.0 mm
12:00 AM 62.9°F17.2°C 42.9°F6.1°C 48% Calm Calm -- 29.79 in1008.8 mb 0.00 in0.0 mm 0.00 in/hr0.0 mm/hr 0.00 in0.0 mm